sensor_id;sensor_type;location;lat;lon;timestamp;P1;P2;P0
13030;PMS7003;6582;54.644;9.760;2023-05-07T00:00:07;139.6;139.0;
13030;PMS7003;6582;54.644;9.760;2023-05-07T00:05:02;131.1;127.9;
13030;PMS7003;6582;54.644;9.760;2023-05-07T00:10:06;117.2;111.2;
13030;PMS7003;6582;54.644;9.760;2023-05-07T00:15:05;104.3;95.6;
13030;PMS7003;6582;54.644;9.760;2023-05-07T00:20:02;107.1;98.6;
13030;PMS7003;6582;54.644;9.760;2023-05-07T00:25:03;98.6;89.6;
13030;PMS7003;6582;54.644;9.760;2023-05-07T00:30:01;100.0;91.9;
13030;PMS7003;6582;54.644;9.760;2023-05-07T00:35:02;106.2;100.7;
13030;PMS7003;6582;54.644;9.760;2023-05-07T00:40:06;113.8;110.4;
13030;PMS7003;6582;54.644;9.760;2023-05-07T00:45:01;111.9;108.4;
13030;PMS7003;6582;54.644;9.760;2023-05-07T00:50:01;115.6;112.2;
13030;PMS7003;6582;54.644;9.760;2023-05-07T00:55:02;124.0;121.9;
13030;PMS7003;6582;54.644;9.760;2023-05-07T01:00:03;130.5;128.6;
13030;PMS7003;6582;54.644;9.760;2023-05-07T01:05:02;133.6;131.4;
13030;PMS7003;6582;54.644;9.760;2023-05-07T01:10:02;124.1;119.3;
13030;PMS7003;6582;54.644;9.760;2023-05-07T01:15:01;117.0;110.1;
13030;PMS7003;6582;54.644;9.760;2023-05-07T01:20:01;108.0;98.9;
13030;PMS7003;6582;54.644;9.760;2023-05-07T01:25:02;97.9;86.8;
13030;PMS7003;6582;54.644;9.760;2023-05-07T01:30:03;91.4;80.4;
13030;PMS7003;6582;54.644;9.760;2023-05-07T01:35:02;92.7;82.3;
13030;PMS7003;6582;54.644;9.760;2023-05-07T01:40:01;93.6;84.0;
13030;PMS7003;6582;54.644;9.760;2023-05-07T01:45:06;93.0;83.6;
13030;PMS7003;6582;54.644;9.760;2023-05-07T01:55:01;94.7;85.0;
13030;PMS7003;6582;54.644;9.760;2023-05-07T02:00:01;98.8;90.4;
13030;PMS7003;6582;54.644;9.760;2023-05-07T02:05:01;108.4;101.9;
13030;PMS7003;6582;54.644;9.760;2023-05-07T02:30:01;86.8;74.0;
13030;PMS7003;6582;54.644;9.760;2023-05-07T02:35:01;90.7;79.5;
13030;PMS7003;6582;54.644;9.760;2023-05-07T02:40:01;93.1;83.5;
13030;PMS7003;6582;54.644;9.760;2023-05-07T02:45:01;99.0;91.1;
13030;PMS7003;6582;54.644;9.760;2023-05-07T02:50:02;106.4;99.7;
13030;PMS7003;6582;54.644;9.760;2023-05-07T02:55:07;106.7;99.6;
13030;PMS7003;6582;54.644;9.760;2023-05-07T03:00:11;115.6;110.3;
13030;PMS7003;6582;54.644;9.760;2023-05-07T03:05:01;112.0;105.1;
13030;PMS7003;6582;54.644;9.760;2023-05-07T03:10:02;105.0;95.6;
13030;PMS7003;6582;54.644;9.760;2023-05-07T03:15:01;93.8;81.9;
13030;PMS7003;6582;54.644;9.760;2023-05-07T03:20:01;95.0;84.2;
13030;PMS7003;6582;54.644;9.760;2023-05-07T03:25:06;85.3;72.4;
13030;PMS7003;6582;54.644;9.760;2023-05-07T03:30:01;88.0;76.2;
13030;PMS7003;6582;54.644;9.760;2023-05-07T03:35:01;95.6;86.0;
13030;PMS7003;6582;54.644;9.760;2023-05-07T03:40:06;100.0;91.8;
13030;PMS7003;6582;54.644;9.760;2023-05-07T03:45:06;111.4;105.0;
13030;PMS7003;6582;54.644;9.760;2023-05-07T03:50:01;115.5;110.7;
13030;PMS7003;6582;54.644;9.760;2023-05-07T03:55:01;115.3;109.9;
13030;PMS7003;6582;54.644;9.760;2023-05-07T04:00:01;111.6;105.4;
13030;PMS7003;6582;54.644;9.760;2023-05-07T04:05:01;110.7;104.5;
13030;PMS7003;6582;54.644;9.760;2023-05-07T04:10:01;105.2;98.5;
13030;PMS7003;6582;54.644;9.760;2023-05-07T04:15:01;108.5;102.4;
13030;PMS7003;6582;54.644;9.760;2023-05-07T04:20:08;114.7;110.5;
13030;PMS7003;6582;54.644;9.760;2023-05-07T04:25:01;117.7;114.8;
13030;PMS7003;6582;54.644;9.760;2023-05-07T04:30:01;128.8;127.5;
13030;PMS7003;6582;54.644;9.760;2023-05-07T04:35:01;121.1;117.8;
13030;PMS7003;6582;54.644;9.760;2023-05-07T04:40:01;112.6;106.8;
13030;PMS7003;6582;54.644;9.760;2023-05-07T04:45:02;105.4;96.8;
13030;PMS7003;6582;54.644;9.760;2023-05-07T04:50:03;99.1;88.2;
13030;PMS7003;6582;54.644;9.760;2023-05-07T04:55:01;85.3;71.7;
13030;PMS7003;6582;54.644;9.760;2023-05-07T05:00:06;85.7;72.3;
13030;PMS7003;6582;54.644;9.760;2023-05-07T05:05:01;85.8;72.5;
13030;PMS7003;6582;54.644;9.760;2023-05-07T05:10:01;86.2;74.0;
13030;PMS7003;6582;54.644;9.760;2023-05-07T05:15:01;86.4;74.2;
13030;PMS7003;6582;54.644;9.760;2023-05-07T05:20:01;88.7;78.7;
13030;PMS7003;6582;54.644;9.760;2023-05-07T05:25:01;91.0;82.8;
13030;PMS7003;6582;54.644;9.760;2023-05-07T05:30:03;93.6;87.7;
13030;PMS7003;6582;54.644;9.760;2023-05-07T05:35:01;95.5;90.9;
13030;PMS7003;6582;54.644;9.760;2023-05-07T05:40:07;101.3;99.0;
13030;PMS7003;6582;54.644;9.760;2023-05-07T05:45:01;107.5;105.6;
13030;PMS7003;6582;54.644;9.760;2023-05-07T05:50:01;113.2;111.7;
13030;PMS7003;6582;54.644;9.760;2023-05-07T05:55:01;115.8;114.5;
13030;PMS7003;6582;54.644;9.760;2023-05-07T06:00:06;120.9;120.0;
13030;PMS7003;6582;54.644;9.760;2023-05-07T06:05:01;117.8;116.4;
13030;PMS7003;6582;54.644;9.760;2023-05-07T06:10:01;116.0;114.6;
13030;PMS7003;6582;54.644;9.760;2023-05-07T06:15:01;122.4;120.9;
13030;PMS7003;6582;54.644;9.760;2023-05-07T06:20:02;121.6;119.5;
13030;PMS7003;6582;54.644;9.760;2023-05-07T06:25:01;116.8;113.5;
13030;PMS7003;6582;54.644;9.760;2023-05-07T06:30:01;117.3;114.0;
13030;PMS7003;6582;54.644;9.760;2023-05-07T06:35:02;113.4;109.4;
13030;PMS7003;6582;54.644;9.760;2023-05-07T06:40:01;103.7;99.8;
13030;PMS7003;6582;54.644;9.760;2023-05-07T06:45:01;106.9;103.4;
13030;PMS7003;6582;54.644;9.760;2023-05-07T06:50:13;118.7;116.5;
13030;PMS7003;6582;54.644;9.760;2023-05-07T06:55:02;125.0;123.1;
13030;PMS7003;6582;54.644;9.760;2023-05-07T07:00:01;135.7;134.7;
13030;PMS7003;6582;54.644;9.760;2023-05-07T07:05:01;142.6;141.4;
13030;PMS7003;6582;54.644;9.760;2023-05-07T07:10:01;144.8;142.6;
13030;PMS7003;6582;54.644;9.760;2023-05-07T07:15:01;144.2;141.6;
13030;PMS7003;6582;54.644;9.760;2023-05-07T07:20:01;153.2;150.6;
13030;PMS7003;6582;54.644;9.760;2023-05-07T07:25:01;159.9;157.2;
13030;PMS7003;6582;54.644;9.760;2023-05-07T07:30:01;172.9;170.1;
13030;PMS7003;6582;54.644;9.760;2023-05-07T07:35:01;180.7;178.9;
13030;PMS7003;6582;54.644;9.760;2023-05-07T07:40:01;187.6;185.8;
13030;PMS7003;6582;54.644;9.760;2023-05-07T07:45:01;185.9;183.5;
13030;PMS7003;6582;54.644;9.760;2023-05-07T07:50:02;182.6;180.2;
13030;PMS7003;6582;54.644;9.760;2023-05-07T07:55:02;164.3;160.6;
13030;PMS7003;6582;54.644;9.760;2023-05-07T08:00:02;164.7;159.9;
13030;PMS7003;6582;54.644;9.760;2023-05-07T08:05:01;164.0;158.9;
13030;PMS7003;6582;54.644;9.760;2023-05-07T08:10:02;168.2;163.4;
13030;PMS7003;6582;54.644;9.760;2023-05-07T08:15:01;169.2;163.1;
13030;PMS7003;6582;54.644;9.760;2023-05-07T08:20:01;180.8;175.6;
13030;PMS7003;6582;54.644;9.760;2023-05-07T08:25:02;178.0;173.3;
13030;PMS7003;6582;54.644;9.760;2023-05-07T08:30:02;175.3;170.7;
13030;PMS7003;6582;54.644;9.760;2023-05-07T08:35:02;169.6;164.8;
13030;PMS7003;6582;54.644;9.760;2023-05-07T08:40:01;168.0;164.6;
13030;PMS7003;6582;54.644;9.760;2023-05-07T08:45:08;164.7;161.4;
13030;PMS7003;6582;54.644;9.760;2023-05-07T08:50:01;163.1;159.2;
13030;PMS7003;6582;54.644;9.760;2023-05-07T08:55:02;161.6;157.4;
13030;PMS7003;6582;54.644;9.760;2023-05-07T09:00:03;165.1;160.2;
13030;PMS7003;6582;54.644;9.760;2023-05-07T09:05:02;161.8;156.0;
13030;PMS7003;6582;54.644;9.760;2023-05-07T09:10:07;159.5;153.6;
13030;PMS7003;6582;54.644;9.760;2023-05-07T09:15:01;154.8;148.8;
13030;PMS7003;6582;54.644;9.760;2023-05-07T09:20:02;142.2;135.6;
13030;PMS7003;6582;54.644;9.760;2023-05-07T09:25:01;138.4;131.6;
13030;PMS7003;6582;54.644;9.760;2023-05-07T09:30:04;130.6;123.1;
13030;PMS7003;6582;54.644;9.760;2023-05-07T09:35:01;126.4;118.4;
13030;PMS7003;6582;54.644;9.760;2023-05-07T09:40:06;127.4;119.1;
13030;PMS7003;6582;54.644;9.760;2023-05-07T09:45:01;140.7;131.7;
13030;PMS7003;6582;54.644;9.760;2023-05-07T09:50:02;128.6;119.2;
13030;PMS7003;6582;54.644;9.760;2023-05-07T09:55:03;132.4;122.7;
13030;PMS7003;6582;54.644;9.760;2023-05-07T10:00:03;128.5;118.8;
13030;PMS7003;6582;54.644;9.760;2023-05-07T10:05:02;126.0;116.1;
13030;PMS7003;6582;54.644;9.760;2023-05-07T10:10:01;113.2;104.0;
13030;PMS7003;6582;54.644;9.760;2023-05-07T10:15:01;120.2;111.5;
13030;PMS7003;6582;54.644;9.760;2023-05-07T10:20:06;124.7;115.8;
13030;PMS7003;6582;54.644;9.760;2023-05-07T10:25:01;134.8;126.0;
13030;PMS7003;6582;54.644;9.760;2023-05-07T10:30:10;142.0;133.0;
13030;PMS7003;6582;54.644;9.760;2023-05-07T10:35:02;141.2;131.7;
13030;PMS7003;6582;54.644;9.760;2023-05-07T10:40:02;145.3;135.4;
13030;PMS7003;6582;54.644;9.760;2023-05-07T11:00:03;136.0;127.0;
13030;PMS7003;6582;54.644;9.760;2023-05-07T11:20:02;120.2;113.4;
13030;PMS7003;6582;54.644;9.760;2023-05-07T11:25:02;118.3;109.5;
13030;PMS7003;6582;54.644;9.760;2023-05-07T11:30:01;108.5;99.3;
13030;PMS7003;6582;54.644;9.760;2023-05-07T11:35:01;116.2;106.9;
13030;PMS7003;6582;54.644;9.760;2023-05-07T11:40:07;117.1;108.2;
13030;PMS7003;6582;54.644;9.760;2023-05-07T11:45:01;114.7;105.6;
13030;PMS7003;6582;54.644;9.760;2023-05-07T11:50:03;119.0;109.8;
13030;PMS7003;6582;54.644;9.760;2023-05-07T11:55:02;136.4;127.2;
13030;PMS7003;6582;54.644;9.760;2023-05-07T12:00:02;146.4;137.6;
13030;PMS7003;6582;54.644;9.760;2023-05-07T12:05:07;157.4;148.8;
13030;PMS7003;6582;54.644;9.760;2023-05-07T12:10:07;172.2;164.4;
13030;PMS7003;6582;54.644;9.760;2023-05-07T12:15:02;178.2;172.2;
13030;PMS7003;6582;54.644;9.760;2023-05-07T12:20:02;174.0;168.3;
13030;PMS7003;6582;54.644;9.760;2023-05-07T12:25:02;167.3;162.8;
13030;PMS7003;6582;54.644;9.760;2023-05-07T12:30:01;161.4;158.1;
13030;PMS7003;6582;54.644;9.760;2023-05-07T12:35:03;154.0;151.0;
13030;PMS7003;6582;54.644;9.760;2023-05-07T12:40:05;149.2;146.1;
13030;PMS7003;6582;54.644;9.760;2023-05-07T12:45:10;145.4;143.9;
13030;PMS7003;6582;54.644;9.760;2023-05-07T12:50:02;143.4;141.5;
13030;PMS7003;6582;54.644;9.760;2023-05-07T12:55:05;141.2;139.2;
13030;PMS7003;6582;54.644;9.760;2023-05-07T13:00:01;140.4;138.2;
13030;PMS7003;6582;54.644;9.760;2023-05-07T13:05:02;141.0;138.6;
13030;PMS7003;6582;54.644;9.760;2023-05-07T13:10:01;141.3;138.6;
13030;PMS7003;6582;54.644;9.760;2023-05-07T13:15:07;138.0;135.4;
13030;PMS7003;6582;54.644;9.760;2023-05-07T13:20:01;137.0;133.5;
13030;PMS7003;6582;54.644;9.760;2023-05-07T13:25:01;137.3;133.5;
13030;PMS7003;6582;54.644;9.760;2023-05-07T13:30:02;134.6;131.6;
13030;PMS7003;6582;54.644;9.760;2023-05-07T13:35:02;138.0;134.9;
13030;PMS7003;6582;54.644;9.760;2023-05-07T13:40:02;144.2;140.3;
13030;PMS7003;6582;54.644;9.760;2023-05-07T13:45:02;157.5;153.6;
13030;PMS7003;6582;54.644;9.760;2023-05-07T13:50:02;167.5;163.8;
13030;PMS7003;6582;54.644;9.760;2023-05-07T13:55:01;182.1;177.9;
13030;PMS7003;6582;54.644;9.760;2023-05-07T14:00:06;195.2;191.0;
13030;PMS7003;6582;54.644;9.760;2023-05-07T14:10:02;217.6;214.1;
13030;PMS7003;6582;54.644;9.760;2023-05-07T14:15:02;232.0;229.0;
13030;PMS7003;6582;54.644;9.760;2023-05-07T14:20:01;234.2;231.8;
13030;PMS7003;6582;54.644;9.760;2023-05-07T14:25:12;242.5;240.4;
13030;PMS7003;6582;54.644;9.760;2023-05-07T14:30:06;232.4;230.7;
13030;PMS7003;6582;54.644;9.760;2023-05-07T14:35:02;209.8;208.6;
13030;PMS7003;6582;54.644;9.760;2023-05-07T14:40:01;193.9;192.2;
13030;PMS7003;6582;54.644;9.760;2023-05-07T14:45:06;189.8;187.4;
13030;PMS7003;6582;54.644;9.760;2023-05-07T14:50:03;177.6;174.5;
13030;PMS7003;6582;54.644;9.760;2023-05-07T14:55:01;189.0;185.5;
13030;PMS7003;6582;54.644;9.760;2023-05-07T15:00:03;205.9;202.4;
13030;PMS7003;6582;54.644;9.760;2023-05-07T15:05:01;222.0;219.1;
13030;PMS7003;6582;54.644;9.760;2023-05-07T15:10:01;228.0;226.2;
13030;PMS7003;6582;54.644;9.760;2023-05-07T15:15:01;250.4;248.6;
13030;PMS7003;6582;54.644;9.760;2023-05-07T15:20:07;263.6;261.9;
13030;PMS7003;6582;54.644;9.760;2023-05-07T15:25:01;274.4;272.4;
13030;PMS7003;6582;54.644;9.760;2023-05-07T15:30:02;279.8;278.1;
13030;PMS7003;6582;54.644;9.760;2023-05-07T15:40:01;292.2;290.6;
13030;PMS7003;6582;54.644;9.760;2023-05-07T15:45:01;291.6;290.7;
13030;PMS7003;6582;54.644;9.760;2023-05-07T15:50:03;290.9;290.3;
13030;PMS7003;6582;54.644;9.760;2023-05-07T15:55:01;262.8;262.3;
13030;PMS7003;6582;54.644;9.760;2023-05-07T16:00:06;261.2;260.7;
13030;PMS7003;6582;54.644;9.760;2023-05-07T16:05:01;266.0;265.4;
13030;PMS7003;6582;54.644;9.760;2023-05-07T16:10:03;266.9;266.2;
13030;PMS7003;6582;54.644;9.760;2023-05-07T16:15:06;267.7;266.9;
13030;PMS7003;6582;54.644;9.760;2023-05-07T16:20:02;297.4;296.8;
13030;PMS7003;6582;54.644;9.760;2023-05-07T16:25:06;301.1;300.4;
13030;PMS7003;6582;54.644;9.760;2023-05-07T16:30:01;298.9;298.0;
13030;PMS7003;6582;54.644;9.760;2023-05-07T16:35:02;296.6;295.4;
13030;PMS7003;6582;54.644;9.760;2023-05-07T16:40:02;293.9;292.7;
13030;PMS7003;6582;54.644;9.760;2023-05-07T16:50:01;270.9;269.3;
13030;PMS7003;6582;54.644;9.760;2023-05-07T16:55:02;246.5;244.8;
13030;PMS7003;6582;54.644;9.760;2023-05-07T17:00:02;231.8;230.4;
13030;PMS7003;6582;54.644;9.760;2023-05-07T17:05:02;217.4;216.3;
13030;PMS7003;6582;54.644;9.760;2023-05-07T17:10:02;189.0;187.9;
13030;PMS7003;6582;54.644;9.760;2023-05-07T17:15:06;181.6;180.9;
13030;PMS7003;6582;54.644;9.760;2023-05-07T17:20:02;179.3;178.6;
13030;PMS7003;6582;54.644;9.760;2023-05-07T17:25:02;183.3;182.5;
13030;PMS7003;6582;54.644;9.760;2023-05-07T17:30:02;192.4;191.2;
13030;PMS7003;6582;54.644;9.760;2023-05-07T17:35:01;201.3;200.0;
13030;PMS7003;6582;54.644;9.760;2023-05-07T17:40:01;194.5;193.0;
13030;PMS7003;6582;54.644;9.760;2023-05-07T17:45:01;178.4;177.3;
13030;PMS7003;6582;54.644;9.760;2023-05-07T17:50:03;148.5;146.0;
13030;PMS7003;6582;54.644;9.760;2023-05-07T18:00:06;113.4;110.2;
13030;PMS7003;6582;54.644;9.760;2023-05-07T18:05:02;94.2;89.7;
13030;PMS7003;6582;54.644;9.760;2023-05-07T18:10:01;88.0;82.1;
13030;PMS7003;6582;54.644;9.760;2023-05-07T18:15:01;86.2;78.1;
13030;PMS7003;6582;54.644;9.760;2023-05-07T18:20:02;86.0;77.2;
13030;PMS7003;6582;54.644;9.760;2023-05-07T18:30:02;86.2;76.0;
13030;PMS7003;6582;54.644;9.760;2023-05-07T18:35:01;87.8;78.2;
13030;PMS7003;6582;54.644;9.760;2023-05-07T18:45:01;87.5;77.9;
13030;PMS7003;6582;54.644;9.760;2023-05-07T18:50:07;87.6;78.4;
13030;PMS7003;6582;54.644;9.760;2023-05-07T18:55:02;87.2;78.2;
13030;PMS7003;6582;54.644;9.760;2023-05-07T19:00:06;87.4;78.2;
13030;PMS7003;6582;54.644;9.760;2023-05-07T19:05:07;86.6;77.2;
13030;PMS7003;6582;54.644;9.760;2023-05-07T19:10:07;88.5;80.3;
13030;PMS7003;6582;54.644;9.760;2023-05-07T19:20:02;90.0;82.6;
13030;PMS7003;6582;54.644;9.760;2023-05-07T19:25:02;91.0;83.9;
13030;PMS7003;6582;54.644;9.760;2023-05-07T19:30:02;91.6;85.4;
13030;PMS7003;6582;54.644;9.760;2023-05-07T19:35:01;92.0;85.7;
13030;PMS7003;6582;54.644;9.760;2023-05-07T19:40:01;91.2;84.0;
13030;PMS7003;6582;54.644;9.760;2023-05-07T19:45:06;91.3;83.9;
13030;PMS7003;6582;54.644;9.760;2023-05-07T19:50:01;92.1;85.4;
13030;PMS7003;6582;54.644;9.760;2023-05-07T19:55:01;91.8;84.4;
13030;PMS7003;6582;54.644;9.760;2023-05-07T20:00:06;90.6;82.5;
13030;PMS7003;6582;54.644;9.760;2023-05-07T20:05:01;89.4;79.7;
13030;PMS7003;6582;54.644;9.760;2023-05-07T20:10:01;85.9;74.5;
13030;PMS7003;6582;54.644;9.760;2023-05-07T20:20:02;81.9;69.2;
13030;PMS7003;6582;54.644;9.760;2023-05-07T20:25:03;79.1;65.2;
13030;PMS7003;6582;54.644;9.760;2023-05-07T20:30:02;78.6;63.5;
13030;PMS7003;6582;54.644;9.760;2023-05-07T20:35:02;77.4;62.8;
13030;PMS7003;6582;54.644;9.760;2023-05-07T20:40:01;77.9;63.6;
13030;PMS7003;6582;54.644;9.760;2023-05-07T20:45:09;78.4;63.8;
13030;PMS7003;6582;54.644;9.760;2023-05-07T20:50:01;78.8;64.5;
13030;PMS7003;6582;54.644;9.760;2023-05-07T20:55:03;76.7;62.8;
13030;PMS7003;6582;54.644;9.760;2023-05-07T21:00:03;76.4;62.5;
13030;PMS7003;6582;54.644;9.760;2023-05-07T21:15:01;76.4;62.4;
13030;PMS7003;6582;54.644;9.760;2023-05-07T21:20:01;76.5;62.5;
13030;PMS7003;6582;54.644;9.760;2023-05-07T21:25:02;77.0;63.1;
13030;PMS7003;6582;54.644;9.760;2023-05-07T21:30:01;78.0;64.0;
13030;PMS7003;6582;54.644;9.760;2023-05-07T21:35:01;78.2;64.4;
13030;PMS7003;6582;54.644;9.760;2023-05-07T21:45:03;79.6;65.4;
13030;PMS7003;6582;54.644;9.760;2023-05-07T21:50:02;79.0;65.0;
13030;PMS7003;6582;54.644;9.760;2023-05-07T21:55:12;78.8;64.8;
13030;PMS7003;6582;54.644;9.760;2023-05-07T22:00:02;77.8;64.2;
13030;PMS7003;6582;54.644;9.760;2023-05-07T22:05:02;77.4;64.0;
13030;PMS7003;6582;54.644;9.760;2023-05-07T22:10:01;75.9;62.8;
13030;PMS7003;6582;54.644;9.760;2023-05-07T22:15:06;76.1;63.0;
13030;PMS7003;6582;54.644;9.760;2023-05-07T22:20:02;76.0;63.0;
13030;PMS7003;6582;54.644;9.760;2023-05-07T22:25:01;76.7;63.6;
13030;PMS7003;6582;54.644;9.760;2023-05-07T22:30:06;78.1;64.8;
13030;PMS7003;6582;54.644;9.760;2023-05-07T22:35:02;80.2;67.1;
13030;PMS7003;6582;54.644;9.760;2023-05-07T22:40:01;79.9;66.9;
13030;PMS7003;6582;54.644;9.760;2023-05-07T22:50:02;80.5;67.4;
13030;PMS7003;6582;54.644;9.760;2023-05-07T22:55:01;80.0;66.8;
13030;PMS7003;6582;54.644;9.760;2023-05-07T23:00:03;78.4;65.1;
13030;PMS7003;6582;54.644;9.760;2023-05-07T23:05:01;76.4;63.0;
13030;PMS7003;6582;54.644;9.760;2023-05-07T23:10:03;79.0;65.4;
13030;PMS7003;6582;54.644;9.760;2023-05-07T23:15:01;79.6;65.7;
13030;PMS7003;6582;54.644;9.760;2023-05-07T23:20:06;82.1;68.8;
13030;PMS7003;6582;54.644;9.760;2023-05-07T23:25:07;84.3;71.5;
13030;PMS7003;6582;54.644;9.760;2023-05-07T23:30:01;87.0;74.5;
13030;PMS7003;6582;54.644;9.760;2023-05-07T23:35:01;87.2;75.1;
13030;PMS7003;6582;54.644;9.760;2023-05-07T23:40:01;86.4;74.6;
13030;PMS7003;6582;54.644;9.760;2023-05-07T23:45:02;85.0;72.8;
13030;PMS7003;6582;54.644;9.760;2023-05-07T23:50:01;83.4;70.7;
13030;PMS7003;6582;54.644;9.760;2023-05-07T23:55:01;81.3;68.2;
